Time;durP1;ratioP1;P1;durP2;ratioP2;P2;SDS_P1;SDS_P2;PMS_P1;PMS_P2;Temp;Humidity;BMP_temperature;BMP_pressure;BME280_temperature;BME280_humidity;BME280_pressure;Samples;Min_cycle;Max_cycle;Signal;HPM_P1;HPM_P2
2021/01/13 00:01:39;;;;;;;21.73;15.67;;;3.00;70.90;;;;;;6185049;23;20013;-82
2021/01/13 00:04:05;;;;;;;29.40;16.60;;;3.10;71.00;;;;;;6160035;23;20393;-82
2021/01/13 00:06:32;;;;;;;24.67;15.40;;;3.10;71.50;;;;;;6158778;23;20041;-82
2021/01/13 00:08:58;;;;;;;25.57;16.77;;;3.20;71.00;;;;;;6158564;23;20005;-82
2021/01/13 00:11:24;;;;;;;30.13;18.67;;;3.30;70.90;;;;;;6158333;23;20059;-81
2021/01/13 00:13:50;;;;;;;27.47;18.90;;;3.30;70.90;;;;;;6158687;23;20008;-81
2021/01/13 00:16:16;;;;;;;25.73;18.43;;;3.40;70.90;;;;;;6158643;23;20649;-81
2021/01/13 00:18:41;;;;;;;29.90;19.60;;;3.30;70.90;;;;;;6157397;23;20080;-81
2021/01/13 00:21:17;;;;;;;28.00;18.17;;;3.30;70.90;;;;;;6184871;23;20768;-81
2021/01/13 00:23:45;;;;;;;27.80;17.70;;;3.30;70.90;;;;;;6186020;23;20009;-82
2021/01/13 00:26:18;;;;;;;27.03;17.40;;;3.30;70.80;;;;;;6184799;23;20009;-81
2021/01/13 00:28:44;;;;;;;25.10;16.73;;;3.30;70.60;;;;;;6156929;23;20068;-81
2021/01/13 00:31:12;;;;;;;24.93;17.20;;;3.30;70.70;;;;;;6158575;23;20047;-81
2021/01/13 00:33:37;;;;;;;30.87;18.87;;;3.30;70.60;;;;;;6158365;23;20005;-81
2021/01/13 00:36:04;;;;;;;25.53;16.73;;;3.30;70.70;;;;;;6184616;23;20068;-81
2021/01/13 00:38:29;;;;;;;28.30;18.57;;;3.30;70.60;;;;;;6157621;23;20008;-81
2021/01/13 00:40:55;;;;;;;23.33;17.27;;;3.30;70.50;;;;;;6156289;23;20036;-81
2021/01/13 00:43:21;;;;;;;23.53;17.63;;;3.30;70.50;;;;;;6195795;23;20013;-81
2021/01/13 00:45:46;;;;;;;26.20;17.37;;;3.20;70.60;;;;;;6213942;23;20005;-81
2021/01/13 00:48:12;;;;;;;24.87;16.83;;;3.30;70.90;;;;;;6186223;23;20079;-81
2021/01/13 00:50:38;;;;;;;25.93;16.67;;;3.30;70.80;;;;;;6186577;23;20027;-82
2021/01/13 00:53:03;;;;;;;23.83;17.37;;;3.40;70.70;;;;;;6186178;23;20409;-81
2021/01/13 00:55:29;;;;;;;26.07;16.73;;;3.40;70.60;;;;;;6186304;23;20753;-82
2021/01/13 00:57:55;;;;;;;22.50;15.67;;;3.40;70.60;;;;;;6186927;23;20040;-82
2021/01/13 01:00:21;;;;;;;27.40;17.67;;;3.50;70.50;;;;;;6213445;23;20092;-82
2021/01/13 01:02:47;;;;;;;26.03;18.10;;;3.50;70.60;;;;;;6188051;23;20005;-81
2021/01/13 01:05:13;;;;;;;27.10;16.93;;;3.40;70.50;;;;;;6214240;23;20001;-81
2021/01/13 01:07:42;;;;;;;27.63;18.80;;;3.40;70.60;;;;;;6188234;23;19996;-81
2021/01/13 01:10:18;;;;;;;25.27;18.67;;;3.40;70.70;;;;;;6187856;23;20001;-81
2021/01/13 01:12:44;;;;;;;31.80;18.07;;;3.40;70.80;;;;;;6209454;23;20004;-81
2021/01/13 01:15:10;;;;;;;27.13;18.23;;;3.40;70.90;;;;;;6187884;23;20036;-81
2021/01/13 01:17:36;;;;;;;21.50;15.57;;;3.40;71.10;;;;;;6184038;23;20008;-81
2021/01/13 01:20:02;;;;;;;24.67;15.43;;;3.40;71.20;;;;;;6185916;23;20008;-81
2021/01/13 01:22:28;;;;;;;23.07;15.70;;;3.40;71.40;;;;;;6187643;23;20040;-81
2021/01/13 01:24:53;;;;;;;23.67;17.77;;;3.60;71.40;;;;;;6187368;23;20338;-82
2021/01/13 01:27:19;;;;;;;23.33;18.53;;;3.60;71.40;;;;;;6214712;23;20325;-82
2021/01/13 01:29:45;;;;;;;24.33;17.13;;;3.60;71.40;;;;;;6187924;23;20008;-82
2021/01/13 01:32:10;;;;;;;22.03;16.60;;;3.60;71.40;;;;;;6187504;23;20001;-82
2021/01/13 01:34:36;;;;;;;13.57;10.00;;;3.60;71.50;;;;;;6187867;23;20091;-81
2021/01/13 01:37:02;;;;;;;18.97;13.90;;;3.60;72.20;;;;;;6188023;23;20009;-81
2021/01/13 01:39:27;;;;;;;18.13;11.70;;;3.70;72.00;;;;;;6213980;23;20080;-81
2021/01/13 01:41:53;;;;;;;17.93;13.57;;;3.70;71.90;;;;;;6187777;23;20027;-81
2021/01/13 01:44:19;;;;;;;14.97;10.47;;;3.80;71.90;;;;;;6165341;23;20021;-81
2021/01/13 01:46:47;;;;;;;14.57;10.73;;;3.90;72.20;;;;;;6161230;23;20079;-81
2021/01/13 01:49:14;;;;;;;14.80;12.20;;;4.00;71.80;;;;;;6159599;23;20084;-82
2021/01/13 01:52:04;;;;;;;7.87;5.77;;;4.00;71.60;;;;;;6159958;23;20005;-82
2021/01/13 01:54:38;;;;;;;4.40;2.40;;;4.00;71.90;;;;;;6160685;23;20008;-82
2021/01/13 01:57:11;;;;;;;7.50;5.07;;;4.10;71.80;;;;;;6160156;23;20372;-82
2021/01/13 02:00:00;;;;;;;8.65;7.05;;;4.30;71.30;;;;;;6160158;23;20005;-82
2021/01/13 02:02:35;;;;;;;3.70;2.87;;;4.20;71.20;;;;;;6160503;23;20085;-82
2021/01/13 02:05:02;;;;;;;3.03;2.23;;;4.30;71.40;;;;;;6160135;23;20476;-82
2021/01/13 02:07:31;;;;;;;2.97;1.97;;;4.30;71.30;;;;;;6160589;23;20383;-82
2021/01/13 02:09:58;;;;;;;2.10;1.70;;;4.40;71.50;;;;;;6160329;23;20008;-82
2021/01/13 02:12:29;;;;;;;4.57;3.33;;;4.60;70.60;;;;;;6159681;23;20033;-82
2021/01/13 02:14:56;;;;;;;9.03;6.87;;;4.50;70.70;;;;;;6160077;23;20017;-82
2021/01/13 02:17:29;;;;;;;5.57;4.77;;;4.40;70.90;;;;;;6159708;23;20051;-82
2021/01/13 02:20:06;;;;;;;6.53;4.30;;;4.40;71.30;;;;;;6160664;23;20139;-82
2021/01/13 02:22:51;;;;;;;9.23;5.80;;;4.40;71.30;;;;;;6159942;23;20091;-82
2021/01/13 02:25:26;;;;;;;4.13;3.53;;;4.30;71.50;;;;;;6186273;23;20005;-82
2021/01/13 02:27:59;;;;;;;10.57;7.83;;;4.30;71.50;;;;;;6159422;23;20001;-82
2021/01/13 02:30:47;;;;;;;8.13;6.47;;;4.40;71.40;;;;;;6159551;23;20001;-82
2021/01/13 02:33:32;;;;;;;10.67;7.73;;;4.40;71.30;;;;;;6185566;23;20059;-82
2021/01/13 02:36:16;;;;;;;8.73;7.27;;;4.40;71.30;;;;;;6158903;23;20009;-82
2021/01/13 02:38:44;;;;;;;8.57;7.60;;;4.40;71.40;;;;;;6159225;23;20009;-82
2021/01/13 02:41:28;;;;;;;7.50;6.07;;;4.30;71.30;;;;;;6158918;23;20011;-82
2021/01/13 02:43:57;;;;;;;2.87;2.23;;;4.30;71.50;;;;;;6159219;23;20020;-82
2021/01/13 02:46:36;;;;;;;2.20;1.80;;;4.50;72.00;;;;;;6186512;23;20013;-82
2021/01/13 02:49:03;;;;;;;2.33;1.80;;;4.50;70.70;;;;;;6159687;23;20107;-82
2021/01/13 02:51:31;;;;;;;2.90;2.50;;;4.60;70.70;;;;;;6159818;23;20008;-82
2021/01/13 02:54:07;;;;;;;5.53;4.00;;;4.60;70.30;;;;;;6159919;23;20016;-82
2021/01/13 02:56:41;;;;;;;3.17;2.77;;;4.50;70.20;;;;;;6186134;23;20005;-82
2021/01/13 02:59:09;;;;;;;5.47;4.30;;;4.50;70.30;;;;;;6158825;23;20009;-82
2021/01/13 03:01:39;;;;;;;3.13;2.73;;;4.60;70.40;;;;;;6160092;23;20009;-82
2021/01/13 03:04:06;;;;;;;2.93;1.50;;;4.60;70.30;;;;;;6159514;23;20005;-82
2021/01/13 03:06:36;;;;;;;4.67;2.77;;;4.70;69.80;;;;;;6160711;23;20005;-83
2021/01/13 03:09:05;;;;;;;3.03;2.30;;;4.60;69.60;;;;;;6159047;23;20087;-82
2021/01/13 03:11:32;;;;;;;4.80;3.17;;;4.60;69.40;;;;;;6158049;23;20017;-83
2021/01/13 03:14:18;;;;;;;4.97;3.67;;;4.60;69.60;;;;;;6185545;23;20024;-83
2021/01/13 03:17:21;;;;;;;4.60;3.03;;;4.60;69.70;;;;;;6160461;23;20005;-83
2021/01/13 03:20:10;;;;;;;5.97;4.17;;;4.80;69.30;;;;;;6181205;23;20059;-83
2021/01/13 03:22:44;;;;;;;5.00;4.00;;;4.80;68.50;;;;;;6186348;23;20001;-82
2021/01/13 03:25:11;;;;;;;5.37;3.67;;;4.70;68.70;;;;;;6160004;23;20009;-82
2021/01/13 03:27:42;;;;;;;6.87;5.30;;;4.70;68.90;;;;;;6159504;23;20369;-82
2021/01/13 03:30:10;;;;;;;6.73;5.07;;;4.60;69.00;;;;;;6159695;23;20008;-82
2021/01/13 03:32:55;;;;;;;6.50;4.60;;;4.60;69.40;;;;;;6160020;23;20036;-82
2021/01/13 03:35:27;;;;;;;5.67;4.87;;;4.60;69.10;;;;;;6159779;23;20024;-83
2021/01/13 03:37:59;;;;;;;6.32;5.32;;;4.60;69.20;;;;;;6186311;23;20001;-82
2021/01/13 03:40:31;;;;;;;7.53;6.23;;;4.50;69.10;;;;;;6159844;23;20009;-82
2021/01/13 03:42:58;;;;;;;6.65;5.53;;;4.50;69.40;;;;;;6159624;23;20019;-83
2021/01/13 03:45:47;;;;;;;5.77;4.73;;;4.40;69.40;;;;;;6160237;23;20016;-83
2021/01/13 03:48:41;;;;;;;3.50;2.70;;;4.30;69.70;;;;;;6159093;23;20021;-83
2021/01/13 03:51:13;;;;;;;;;;;4.40;69.60;;;;;;6187274;23;19997;-83
2021/01/13 03:53:41;;;;;;;2.83;2.47;;;4.30;69.00;;;;;;6160495;23;19900;-83
2021/01/13 03:56:19;;;;;;;3.70;2.67;;;4.40;68.80;;;;;;6159970;23;20005;-83
2021/01/13 03:58:49;;;;;;;4.40;3.40;;;4.30;68.50;;;;;;6160056;23;20005;-82
2021/01/13 04:01:21;;;;;;;3.97;3.13;;;4.20;68.50;;;;;;6184804;23;20016;-82
2021/01/13 04:04:16;;;;;;;4.97;3.60;;;4.20;68.90;;;;;;6160044;23;20004;-82
2021/01/13 04:06:44;;;;;;;8.03;5.03;;;4.10;68.90;;;;;;6158854;23;20005;-82
2021/01/13 04:09:14;;;;;;;4.77;3.67;;;4.10;69.10;;;;;;6159457;23;19997;-82
2021/01/13 04:11:41;;;;;;;5.17;3.90;;;4.10;69.00;;;;;;6159499;23;20024;-81
2021/01/13 04:14:10;;;;;;;8.13;5.80;;;4.00;69.10;;;;;;6186218;23;20541;-82
2021/01/13 04:16:37;;;;;;;8.10;4.40;;;4.00;69.30;;;;;;6159563;23;20404;-82
2021/01/13 04:19:04;;;;;;;5.83;4.30;;;3.90;69.40;;;;;;6158991;23;20001;-82
2021/01/13 04:21:31;;;;;;;7.30;5.47;;;3.90;69.60;;;;;;6160220;23;20005;-82
2021/01/13 04:23:58;;;;;;;12.47;6.67;;;4.00;69.60;;;;;;6159899;23;20016;-83
2021/01/13 04:26:24;;;;;;;9.57;6.77;;;3.90;69.50;;;;;;6186043;23;20005;-83
2021/01/13 04:28:50;;;;;;;11.30;6.27;;;3.90;69.80;;;;;;6159569;23;20055;-83
2021/01/13 04:31:16;;;;;;;12.17;6.70;;;3.80;69.80;;;;;;6186259;23;20636;-83
2021/01/13 04:33:42;;;;;;;9.43;6.30;;;3.90;70.00;;;;;;6159114;23;20384;-83
2021/01/13 04:36:08;;;;;;;10.80;6.27;;;3.90;69.90;;;;;;6158928;23;20009;-83
2021/01/13 04:38:35;;;;;;;11.37;6.30;;;3.80;69.80;;;;;;6159371;23;20009;-83
2021/01/13 04:41:07;;;;;;;12.07;6.67;;;3.80;70.10;;;;;;6158142;23;20067;-82
2021/01/13 04:43:49;;;;;;;8.03;5.53;;;3.80;70.10;;;;;;6200953;23;20012;-82
2021/01/13 04:46:33;;;;;;;10.00;6.18;;;3.90;70.10;;;;;;6216200;23;20000;-82
2021/01/13 04:49:11;;;;;;;9.60;6.00;;;3.80;70.10;;;;;;6189274;23;20001;-83
2021/01/13 04:51:44;;;;;;;6.97;4.87;;;3.80;69.90;;;;;;6216006;23;20071;-83
2021/01/13 04:54:17;;;;;;;;;;;3.80;70.20;;;;;;6189462;23;20083;-83
2021/01/13 04:56:45;;;;;;;5.65;4.65;;;3.80;70.10;;;;;;6189808;23;20602;-83
2021/01/13 04:59:37;;;;;;;8.67;5.40;;;3.80;69.70;;;;;;6188853;23;20005;-83
2021/01/13 05:02:09;;;;;;;11.43;7.00;;;3.80;69.60;;;;;;6187004;23;20009;-82
2021/01/13 05:05:04;;;;;;;9.73;5.53;;;3.80;69.80;;;;;;6215819;23;20326;-82
2021/01/13 05:07:37;;;;;;;8.70;5.67;;;3.90;70.10;;;;;;6178751;23;20443;-82
2021/01/13 05:10:23;;;;;;;6.00;4.63;;;3.90;69.90;;;;;;6215636;23;20001;-82
2021/01/13 05:12:58;;;;;;;5.87;3.43;;;3.90;70.00;;;;;;6187945;23;20096;-83
2021/01/13 05:15:25;;;;;;;4.57;3.13;;;3.90;69.90;;;;;;6189071;23;20056;-82
2021/01/13 05:18:08;;;;;;;3.77;2.10;;;3.90;69.60;;;;;;6184135;23;20008;-82
2021/01/13 05:20:39;;;;;;;2.47;1.05;;;3.90;69.20;;;;;;6185304;23;20011;-82
2021/01/13 05:23:10;;;;;;;4.60;2.63;;;3.90;68.90;;;;;;6213193;23;20492;-82
2021/01/13 05:25:37;;;;;;;2.80;1.80;;;3.90;68.70;;;;;;6188588;23;20312;-82
2021/01/13 05:28:07;;;;;;;4.70;2.33;;;4.00;68.40;;;;;;6189720;23;20005;-82
2021/01/13 05:30:39;;;;;;;6.33;4.47;;;4.00;68.30;;;;;;6189376;23;20417;-82
2021/01/13 05:33:10;;;;;;;9.00;5.25;;;4.00;68.40;;;;;;6188898;23;20024;-82
2021/01/13 05:35:39;;;;;;;9.70;6.47;;;4.00;68.60;;;;;;6189309;23;20013;-82
2021/01/13 05:38:36;;;;;;;7.70;5.83;;;4.00;68.80;;;;;;6189092;23;20008;-82
2021/01/13 05:41:11;;;;;;;7.73;4.80;;;4.00;69.10;;;;;;6189114;23;20019;-82
2021/01/13 05:43:48;;;;;;;6.13;3.80;;;4.00;69.50;;;;;;6173026;23;20028;-82
2021/01/13 05:46:16;;;;;;;9.33;5.00;;;4.10;68.80;;;;;;6159134;23;20005;-82
2021/01/13 05:48:46;;;;;;;9.03;6.50;;;4.10;68.70;;;;;;6159669;23;20447;-82
2021/01/13 05:51:13;;;;;;;8.20;6.73;;;4.10;68.90;;;;;;6184980;23;20001;-82
2021/01/13 05:53:49;;;;;;;13.20;8.47;;;4.10;69.10;;;;;;6158941;23;20032;-83
2021/01/13 05:56:17;;;;;;;10.20;7.57;;;4.00;69.10;;;;;;6159008;23;20005;-82
2021/01/13 05:58:43;;;;;;;11.87;7.53;;;4.00;69.30;;;;;;6186083;23;20024;-82
2021/01/13 06:01:39;;;;;;;12.97;8.03;;;4.00;69.60;;;;;;6183604;23;20020;-82
2021/01/13 06:04:05;;;;;;;5.20;4.47;;;4.00;69.60;;;;;;6163602;23;20317;-81
2021/01/13 06:06:40;;;;;;;11.37;5.60;;;4.00;69.90;;;;;;6159930;23;20016;-81
2021/01/13 06:09:07;;;;;;;9.77;6.17;;;4.20;69.30;;;;;;6159461;23;20020;-81
2021/01/13 06:11:35;;;;;;;9.57;6.90;;;4.10;68.90;;;;;;6159425;23;20001;-82
2021/01/13 06:14:05;;;;;;;14.33;7.50;;;4.10;69.00;;;;;;6159357;23;20053;-82
2021/01/13 06:16:32;;;;;;;17.53;8.27;;;4.10;69.10;;;;;;6185524;23;20041;-82
2021/01/13 06:18:58;;;;;;;9.03;5.60;;;3.90;68.90;;;;;;6158962;23;20099;-82
2021/01/13 06:21:24;;;;;;;8.30;5.10;;;3.90;69.20;;;;;;6158301;23;20463;-80
2021/01/13 06:23:51;;;;;;;8.90;5.67;;;3.90;69.30;;;;;;6159286;23;20001;-80
2021/01/13 06:26:19;;;;;;;13.90;7.60;;;3.90;69.00;;;;;;6158625;23;20039;-80
2021/01/13 06:29:23;;;;;;;17.27;8.47;;;3.90;68.90;;;;;;6135076;23;20093;-80
2021/01/13 06:31:57;;;;;;;15.87;7.47;;;3.80;69.30;;;;;;6067358;23;20007;-80
2021/01/13 06:34:28;;;;;;;15.50;8.50;;;3.80;69.40;;;;;;6067594;23;20034;-80
2021/01/13 06:37:07;;;;;;;15.07;7.57;;;3.80;69.50;;;;;;6135187;23;20001;-80
2021/01/13 06:39:33;;;;;;;14.17;6.90;;;3.80;69.40;;;;;;6160816;23;20005;-80
2021/01/13 06:41:59;;;;;;;13.20;6.50;;;3.80;69.40;;;;;;6187106;23;20001;-81
2021/01/13 06:44:25;;;;;;;13.53;6.57;;;3.80;69.50;;;;;;6161318;23;20076;-81
2021/01/13 06:46:53;;;;;;;13.00;7.47;;;3.80;69.40;;;;;;6187473;23;20035;-81
2021/01/13 06:49:21;;;;;;;17.23;9.60;;;3.80;69.20;;;;;;6159654;23;20100;-81
2021/01/13 06:51:51;;;;;;;22.53;11.23;;;3.80;69.30;;;;;;6187146;23;20076;-81
2021/01/13 06:54:19;;;;;;;22.97;12.87;;;3.80;69.40;;;;;;6160413;23;20001;-81
2021/01/13 06:56:56;;;;;;;23.33;12.33;;;3.80;69.50;;;;;;6160324;23;20103;-81
2021/01/13 06:59:23;;;;;;;21.47;10.20;;;3.80;69.40;;;;;;6160983;23;20016;-81
2021/01/13 07:01:49;;;;;;;18.73;10.30;;;3.80;69.30;;;;;;6160500;23;20400;-81
2021/01/13 07:04:15;;;;;;;15.43;9.93;;;3.80;69.40;;;;;;6160332;23;20092;-81
2021/01/13 07:06:56;;;;;;;22.90;12.47;;;3.80;69.40;;;;;;6187651;23;20429;-81
2021/01/13 07:09:22;;;;;;;16.17;9.60;;;3.80;69.40;;;;;;6187017;23;20421;-81
2021/01/13 07:11:50;;;;;;;16.07;8.97;;;3.80;69.30;;;;;;6161008;23;20078;-83
2021/01/13 07:14:18;;;;;;;22.50;8.20;;;3.80;69.20;;;;;;6160862;23;20095;-82
2021/01/13 07:16:44;;;;;;;15.63;7.23;;;3.80;69.30;;;;;;6160379;23;20016;-82
2021/01/13 07:19:10;;;;;;;22.80;9.13;;;3.90;69.20;;;;;;6160899;23;20009;-82
2021/01/13 07:21:41;;;;;;;16.07;7.50;;;3.90;68.90;;;;;;6161044;23;20005;-83
2021/01/13 07:24:14;;;;;;;8.83;4.77;;;3.80;68.80;;;;;;6160313;23;20012;-81
2021/01/13 07:26:41;;;;;;;20.63;11.63;;;3.80;68.80;;;;;;6160417;23;20005;-81
2021/01/13 07:29:07;;;;;;;22.03;12.53;;;3.80;68.50;;;;;;6159543;23;20008;-81
2021/01/13 07:31:34;;;;;;;14.90;7.07;;;3.80;68.50;;;;;;6187258;23;20001;-82
2021/01/13 07:34:08;;;;;;;15.33;7.97;;;3.80;68.50;;;;;;6161607;23;19997;-82
2021/01/13 07:36:38;;;;;;;14.27;7.47;;;3.80;68.40;;;;;;6156696;23;20059;-81
2021/01/13 07:39:06;;;;;;;13.87;7.93;;;3.80;68.50;;;;;;6182889;23;20359;-82
2021/01/13 07:41:52;;;;;;;16.33;7.83;;;3.90;68.40;;;;;;6184896;23;20001;-82
2021/01/13 07:44:41;;;;;;;27.37;8.60;;;3.90;68.50;;;;;;6158664;23;20029;-82
2021/01/13 07:47:25;;;;;;;12.43;7.20;;;3.90;68.50;;;;;;6160095;23;20020;-82
2021/01/13 07:50:07;;;;;;;16.20;8.50;;;3.90;68.50;;;;;;6159191;23;20016;-82
2021/01/13 07:52:47;;;;;;;15.20;7.88;;;3.90;68.50;;;;;;6160467;23;20012;-82
2021/01/13 07:55:21;;;;;;;19.30;8.80;;;4.00;68.50;;;;;;6161267;23;20108;-83
2021/01/13 07:57:54;;;;;;;18.23;9.60;;;4.00;68.30;;;;;;6187137;23;20429;-83
2021/01/13 08:00:37;;;;;;;16.10;8.80;;;4.00;68.30;;;;;;6160463;23;20084;-83
2021/01/13 08:03:31;;;;;;;15.98;8.40;;;4.00;68.40;;;;;;6160303;23;20009;-82
2021/01/13 08:06:16;;;;;;;12.87;7.50;;;4.00;68.50;;;;;;6159705;23;20230;-83
2021/01/13 08:09:08;;;;;;;13.73;6.43;;;4.10;68.40;;;;;;6187229;23;20064;-82
2021/01/13 08:12:02;;;;;;;10.63;7.22;;;4.10;68.20;;;;;;6159992;23;20187;-82
2021/01/13 08:15:05;;;;;;;18.50;7.45;;;4.20;68.20;;;;;;6187422;23;19997;-82
2021/01/13 08:17:54;;;;;;;13.93;8.23;;;4.20;68.20;;;;;;6159116;23;20332;-82
2021/01/13 08:20:31;;;;;;;18.27;8.07;;;4.20;68.20;;;;;;6160519;23;20023;-82
2021/01/13 08:23:11;;;;;;;21.30;9.73;;;4.20;68.00;;;;;;6160416;23;20230;-82
2021/01/13 08:25:43;;;;;;;28.30;12.93;;;4.30;68.00;;;;;;6159469;23;20005;-82
2021/01/13 08:28:13;;;;;;;30.80;14.45;;;4.30;67.90;;;;;;6158166;23;20048;-82
2021/01/13 08:30:46;;;;;;;55.17;25.37;;;4.30;68.50;;;;;;6160016;23;19997;-82
2021/01/13 08:33:21;;;;;;;63.10;27.03;;;4.30;68.00;;;;;;6159764;23;20001;-82
2021/01/13 08:35:49;;;;;;;55.53;24.77;;;4.30;67.90;;;;;;6159829;23;20000;-82
2021/01/13 08:38:15;;;;;;;61.60;30.27;;;4.40;67.90;;;;;;6160280;23;20009;-82
2021/01/13 08:40:41;;;;;;;61.73;30.07;;;4.50;67.90;;;;;;6159334;23;20013;-82
2021/01/13 08:43:18;;;;;;;43.07;22.87;;;4.50;67.70;;;;;;6196171;23;20016;-82
2021/01/13 08:45:46;;;;;;;32.03;15.27;;;4.50;67.80;;;;;;6189055;23;20013;-82
2021/01/13 08:48:22;;;;;;;34.93;17.43;;;4.50;67.60;;;;;;6190483;23;20005;-82
2021/01/13 08:51:12;;;;;;;37.20;18.13;;;4.50;67.70;;;;;;6189380;23;20011;-82
2021/01/13 08:53:38;;;;;;;49.30;18.27;;;4.50;67.70;;;;;;6197974;23;20012;-83
2021/01/13 08:56:04;;;;;;;14.10;7.87;;;4.50;67.60;;;;;;6189322;23;20080;-82
2021/01/13 08:58:34;;;;;;;14.17;7.50;;;4.50;67.60;;;;;;6189936;23;20082;-82
2021/01/13 09:01:10;;;;;;;28.77;14.83;;;4.50;67.50;;;;;;6189682;23;20004;-82
2021/01/13 09:03:40;;;;;;;24.30;14.07;;;4.60;67.40;;;;;;6189445;23;20032;-82
2021/01/13 09:06:20;;;;;;;20.83;13.03;;;4.50;67.30;;;;;;6190033;23;20068;-82
2021/01/13 09:08:53;;;;;;;24.43;14.13;;;4.50;67.50;;;;;;6189561;23;20498;-82
2021/01/13 09:11:33;;;;;;;21.00;12.23;;;4.60;67.50;;;;;;6188895;23;20012;-82
2021/01/13 09:14:21;;;;;;;20.97;13.03;;;4.60;67.50;;;;;;6187933;23;20022;-83
2021/01/13 09:16:53;;;;;;;23.93;13.00;;;4.60;67.70;;;;;;6162611;23;20050;-83
2021/01/13 09:19:40;;;;;;;23.27;14.05;;;4.60;67.20;;;;;;6216892;23;20001;-83
2021/01/13 09:22:10;;;;;;;30.03;13.13;;;4.60;67.20;;;;;;6190031;23;20035;-82
2021/01/13 09:24:41;;;;;;;18.07;11.33;;;4.60;67.20;;;;;;6190016;23;20000;-82
2021/01/13 09:27:11;;;;;;;21.80;11.93;;;4.60;67.20;;;;;;6189998;23;20006;-82
2021/01/13 09:29:52;;;;;;;25.00;12.10;;;4.60;67.20;;;;;;6188173;23;20028;-82
2021/01/13 09:32:19;;;;;;;22.40;11.87;;;4.60;67.30;;;;;;6189149;23;20096;-82
2021/01/13 09:34:55;;;;;;;21.13;8.97;;;4.60;67.30;;;;;;6189913;23;20090;-82
2021/01/13 09:37:22;;;;;;;27.90;13.63;;;4.70;67.40;;;;;;6189293;23;20001;-82
2021/01/13 09:40:01;;;;;;;22.43;13.90;;;4.70;67.30;;;;;;6188554;23;20009;-81
2021/01/13 09:42:38;;;;;;;22.23;10.80;;;4.80;67.30;;;;;;6189320;23;20428;-80
2021/01/13 09:45:05;;;;;;;16.70;9.87;;;4.80;67.40;;;;;;6189817;23;20451;-81
2021/01/13 09:47:32;;;;;;;22.67;9.83;;;4.80;67.30;;;;;;6189697;23;20399;-81
2021/01/13 09:49:59;;;;;;;24.60;10.70;;;4.80;67.30;;;;;;6190911;23;20010;-81
2021/01/13 09:52:26;;;;;;;21.60;10.10;;;4.80;67.30;;;;;;6190406;23;20008;-83
2021/01/13 09:55:03;;;;;;;23.50;10.23;;;4.80;67.90;;;;;;6189947;23;20052;-81
2021/01/13 09:57:32;;;;;;;14.43;6.97;;;4.90;67.30;;;;;;6218542;23;20019;-81
2021/01/13 10:00:00;;;;;;;18.27;9.90;;;4.90;67.20;;;;;;6191380;23;20062;-82
2021/01/13 10:02:29;;;;;;;18.43;10.37;;;4.90;66.90;;;;;;6191721;23;20047;-82
2021/01/13 10:04:56;;;;;;;15.37;9.23;;;5.00;66.90;;;;;;6191971;23;20012;-82
2021/01/13 10:07:24;;;;;;;13.87;6.63;;;5.00;66.80;;;;;;6192779;23;20007;-82
2021/01/13 10:09:50;;;;;;;18.13;8.40;;;5.10;66.60;;;;;;6219246;23;20328;-82
2021/01/13 10:12:17;;;;;;;12.67;8.83;;;5.10;66.40;;;;;;6193416;23;20005;-82
2021/01/13 10:14:53;;;;;;;18.07;10.30;;;5.10;66.30;;;;;;6193523;23;20005;-82
2021/01/13 10:17:26;;;;;;;16.47;9.30;;;5.10;66.20;;;;;;6193070;23;20000;-82
2021/01/13 10:19:55;;;;;;;24.43;11.13;;;5.10;66.30;;;;;;6192484;23;20060;-81
2021/01/13 10:22:25;;;;;;;16.63;9.87;;;5.10;66.20;;;;;;6193692;23;20016;-81
2021/01/13 10:24:51;;;;;;;17.20;9.47;;;5.10;66.10;;;;;;6191520;23;20031;-81
2021/01/13 10:27:18;;;;;;;21.73;9.27;;;5.10;66.00;;;;;;6192578;23;20459;-81
2021/01/13 10:29:45;;;;;;;17.20;9.17;;;5.20;65.90;;;;;;6192515;23;19997;-81
2021/01/13 10:32:13;;;;;;;20.40;9.87;;;5.20;65.90;;;;;;6168482;23;20008;-82
2021/01/13 10:34:39;;;;;;;19.63;9.53;;;5.20;65.90;;;;;;6192615;23;20059;-82
2021/01/13 10:37:05;;;;;;;25.10;12.57;;;5.30;65.80;;;;;;6192867;23;20399;-82
2021/01/13 10:39:31;;;;;;;25.83;15.37;;;5.30;65.70;;;;;;6193166;23;20313;-81
2021/01/13 10:42:07;;;;;;;16.07;9.00;;;5.30;65.40;;;;;;6192947;23;20054;-82
2021/01/13 10:44:34;;;;;;;14.80;9.37;;;5.30;65.40;;;;;;6168909;23;20016;-81
2021/01/13 10:47:11;;;;;;;21.23;9.13;;;5.30;65.30;;;;;;6189978;23;20009;-81
2021/01/13 10:49:42;;;;;;;19.33;9.23;;;5.30;65.10;;;;;;6162940;23;20005;-81
2021/01/13 10:52:21;;;;;;;17.60;7.67;;;5.30;65.20;;;;;;6188619;23;20009;-81
2021/01/13 10:54:48;;;;;;;12.40;7.53;;;5.30;65.00;;;;;;6162796;23;20001;-81
2021/01/13 10:57:28;;;;;;;13.63;7.67;;;5.40;64.90;;;;;;6162989;23;20324;-81
2021/01/13 11:00:08;;;;;;;12.10;7.73;;;5.40;64.80;;;;;;6162830;23;20016;-82
2021/01/13 11:02:34;;;;;;;14.93;8.83;;;5.40;64.70;;;;;;6160710;23;20008;-81
2021/01/13 11:05:00;;;;;;;14.03;8.00;;;5.40;64.70;;;;;;6162572;23;20083;-81
2021/01/13 11:07:36;;;;;;;15.80;8.57;;;5.40;64.50;;;;;;6163265;23;20001;-81
2021/01/13 11:10:04;;;;;;;14.83;8.60;;;5.40;64.50;;;;;;6163327;23;20063;-81
2021/01/13 11:12:30;;;;;;;14.67;9.67;;;5.40;64.60;;;;;;6189015;23;20005;-81
2021/01/13 11:14:56;;;;;;;18.70;11.10;;;5.40;64.50;;;;;;6164856;23;20032;-82
2021/01/13 11:17:26;;;;;;;15.83;9.73;;;5.40;64.40;;;;;;6162909;23;20036;-82
2021/01/13 11:19:51;;;;;;;18.23;8.53;;;5.40;64.30;;;;;;6161186;23;20009;-82
2021/01/13 11:22:18;;;;;;;17.53;9.93;;;5.50;64.30;;;;;;6163512;23;20013;-82
2021/01/13 11:24:51;;;;;;;17.27;11.20;;;5.60;64.20;;;;;;6163350;23;20091;-82
2021/01/13 11:27:20;;;;;;;;;;;5.70;64.30;;;;;;6185558;23;20004;-82
2021/01/13 11:29:52;;;;;;;12.47;8.03;;;5.80;64.10;;;;;;6161613;23;19963;-82
2021/01/13 11:32:20;;;;;;;13.57;9.07;;;5.90;63.90;;;;;;6162822;23;20443;-82
2021/01/13 11:34:50;;;;;;;15.07;9.07;;;5.90;63.70;;;;;;6164904;23;20005;-82
2021/01/13 11:37:58;;;;;;;15.30;9.23;;;6.00;63.60;;;;;;6162921;23;20001;-82
2021/01/13 11:40:46;;;;;;;13.97;9.57;;;6.00;63.40;;;;;;6143842;23;20008;-82
2021/01/13 11:43:48;;;;;;;18.27;8.73;;;6.20;63.30;;;;;;6196714;23;20043;-82
2021/01/13 11:46:22;;;;;;;14.43;8.30;;;6.30;63.00;;;;;;6133603;23;20044;-82
2021/01/13 11:49:12;;;;;;;17.33;8.70;;;6.40;62.90;;;;;;6194061;23;20067;-82
2021/01/13 11:51:42;;;;;;;14.07;7.83;;;6.40;62.60;;;;;;6192975;23;20020;-82
2021/01/13 11:54:08;;;;;;;18.37;8.43;;;6.50;62.60;;;;;;6192952;23;20000;-82
2021/01/13 11:56:34;;;;;;;15.53;7.73;;;6.60;62.50;;;;;;6194133;23;20008;-82
2021/01/13 11:58:59;;;;;;;15.27;6.53;;;6.70;62.20;;;;;;6194194;23;20001;-82
2021/01/13 12:01:26;;;;;;;12.03;5.53;;;6.70;62.00;;;;;;6194967;23;20004;-82
2021/01/13 12:04:03;;;;;;;18.37;6.50;;;6.80;61.70;;;;;;6193683;23;20004;-82
2021/01/13 12:06:30;;;;;;;7.33;4.50;;;6.70;61.00;;;;;;6194247;23;20332;-82
2021/01/13 12:08:57;;;;;;;10.10;6.30;;;6.70;60.90;;;;;;6192902;23;20059;-82
2021/01/13 12:11:24;;;;;;;19.10;9.00;;;6.70;60.90;;;;;;6193755;23;20065;-82
2021/01/13 12:13:51;;;;;;;22.73;11.67;;;6.70;60.90;;;;;;6192550;23;20412;-82
2021/01/13 12:16:19;;;;;;;18.00;9.77;;;6.80;60.90;;;;;;6220250;23;20004;-81
2021/01/13 12:18:50;;;;;;;17.17;9.13;;;6.90;60.70;;;;;;6192016;23;20021;-81
2021/01/13 12:21:15;;;;;;;15.63;8.97;;;7.00;60.70;;;;;;6192986;23;20087;-82
2021/01/13 12:23:42;;;;;;;17.47;8.23;;;7.00;60.60;;;;;;6219735;23;20417;-82
2021/01/13 12:26:34;;;;;;;17.33;8.80;;;7.10;60.30;;;;;;6194107;23;20005;-82
2021/01/13 12:29:09;;;;;;;13.67;6.23;;;7.10;59.90;;;;;;6192894;23;20416;-82
2021/01/13 12:31:45;;;;;;;12.20;6.00;;;7.10;59.90;;;;;;6193749;23;20001;-82
2021/01/13 12:34:18;;;;;;;8.23;3.93;;;7.00;59.70;;;;;;6192981;23;20000;-82
2021/01/13 12:36:47;;;;;;;7.03;3.67;;;7.10;59.10;;;;;;6193755;23;20404;-81
2021/01/13 12:39:34;;;;;;;12.07;3.93;;;7.10;58.90;;;;;;6219502;23;20710;-83
2021/01/13 12:42:01;;;;;;;9.63;4.33;;;7.10;58.40;;;;;;6193122;23;20062;-81
2021/01/13 12:44:27;;;;;;;13.10;6.50;;;7.10;58.40;;;;;;6169563;23;20103;-85
2021/01/13 12:47:02;;;;;;;11.73;6.47;;;7.00;58.20;;;;;;6162390;23;20053;-82
2021/01/13 12:49:27;;;;;;;14.40;7.43;;;7.00;58.30;;;;;;6161732;23;20092;-82
2021/01/13 12:51:55;;;;;;;16.93;7.30;;;6.90;58.70;;;;;;6164751;23;20001;-81
2021/01/13 12:54:21;;;;;;;13.33;7.03;;;6.90;59.00;;;;;;6162871;23;20016;-81
2021/01/13 12:56:48;;;;;;;20.57;8.47;;;6.90;59.10;;;;;;6163514;23;20378;-82
2021/01/13 12:59:15;;;;;;;18.03;9.10;;;6.80;59.10;;;;;;6162660;23;20091;-81
2021/01/13 13:01:43;;;;;;;15.70;9.00;;;6.80;59.20;;;;;;6163726;23;20037;-82
2021/01/13 13:04:09;;;;;;;16.93;7.60;;;6.80;59.30;;;;;;6168239;23;20001;-81
2021/01/13 13:06:36;;;;;;;15.33;6.70;;;6.70;59.30;;;;;;6171458;23;20012;-80
2021/01/13 13:09:05;;;;;;;11.57;5.90;;;6.80;59.40;;;;;;6169874;23;20001;-81
2021/01/13 13:11:30;;;;;;;9.60;5.97;;;6.90;59.10;;;;;;6192228;23;20027;-81
2021/01/13 13:13:57;;;;;;;11.17;4.97;;;7.00;59.10;;;;;;6188135;23;20075;-81